createdAt,value
2024-03-08T00:02:33.885Z,88.47
2024-03-08T00:07:34.601Z,88.39
2024-03-08T00:12:33.897Z,89.00
2024-03-08T00:17:33.783Z,89.00
2024-03-08T00:22:33.659Z,89.27
2024-03-08T00:27:33.637Z,89.32
2024-03-08T00:32:33.638Z,89.34
2024-03-08T00:37:33.482Z,89.67
2024-03-08T00:42:33.326Z,89.83
2024-03-08T00:47:36.442Z,89.68
2024-03-08T00:52:33.277Z,89.66
2024-03-08T00:57:33.207Z,89.64
2024-03-08T01:02:33.130Z,89.83
2024-03-08T01:07:33.082Z,90.14
2024-03-08T01:12:32.993Z,90.23
2024-03-08T01:17:33.131Z,90.53
2024-03-08T01:22:32.859Z,90.43
2024-03-08T01:27:32.874Z,90.79
2024-03-08T01:32:32.815Z,90.85
2024-03-08T01:37:32.761Z,90.90
2024-03-08T01:42:32.579Z,91.01
2024-03-08T01:47:35.671Z,91.32
2024-03-08T01:52:32.533Z,91.39
2024-03-08T01:57:32.458Z,91.54
2024-03-08T02:02:32.417Z,92.13
2024-03-08T02:07:32.325Z,92.27
2024-03-08T02:12:32.229Z,92.73
2024-03-08T02:17:32.258Z,92.16
2024-03-08T02:22:32.097Z,92.40
2024-03-08T02:27:32.097Z,92.73
2024-03-08T02:32:32.066Z,92.95
2024-03-08T02:37:31.929Z,92.41
2024-03-08T02:42:31.835Z,92.52
2024-03-08T02:47:34.940Z,92.73
2024-03-08T02:52:31.760Z,92.99
2024-03-08T02:57:31.709Z,92.97
2024-03-08T03:02:31.657Z,93.11
2024-03-08T03:07:31.595Z,93.21
2024-03-08T03:12:31.479Z,93.03
2024-03-08T03:17:31.492Z,93.19
2024-03-08T03:22:31.329Z,93.13
2024-03-08T03:27:31.287Z,93.38
2024-03-08T03:32:31.286Z,93.49
2024-03-08T03:37:31.372Z,94.20
2024-03-08T03:42:31.107Z,94.06
2024-03-08T03:47:34.217Z,94.12
2024-03-08T03:52:30.962Z,93.96
2024-03-08T03:57:30.945Z,94.26
2024-03-08T04:02:30.856Z,94.44
2024-03-08T04:07:30.929Z,94.25
2024-03-08T04:12:30.943Z,94.44
2024-03-08T04:17:30.844Z,94.14
2024-03-08T04:22:30.661Z,94.73
2024-03-08T04:27:30.716Z,95.10
2024-03-08T04:32:30.659Z,94.97
2024-03-08T04:37:30.779Z,94.69
2024-03-08T04:42:30.393Z,94.60
2024-03-08T04:47:33.469Z,94.69
2024-03-08T04:52:30.264Z,95.21
2024-03-08T04:57:30.154Z,95.12
2024-03-08T05:02:30.111Z,95.25
2024-03-08T05:07:30.044Z,95.06
2024-03-08T05:12:29.923Z,94.91
2024-03-08T05:17:30.815Z,95.17
2024-03-08T05:22:29.872Z,95.46
2024-03-08T05:27:29.856Z,95.63
2024-03-08T05:32:31.871Z,95.86
2024-03-08T05:37:29.686Z,95.33
2024-03-08T05:42:29.636Z,95.56
2024-03-08T05:47:32.725Z,95.23
2024-03-08T05:52:29.497Z,95.64
2024-03-08T05:57:29.448Z,95.62
2024-03-08T06:02:29.383Z,95.55
2024-03-08T06:07:29.369Z,95.28
2024-03-08T06:12:29.229Z,94.49
2024-03-08T06:17:29.254Z,93.42
2024-03-08T06:22:29.077Z,93.11
2024-03-08T06:27:29.123Z,91.85
2024-03-08T06:32:29.002Z,89.75
2024-03-08T06:37:29.103Z,87.98
2024-03-08T06:42:28.883Z,85.29
2024-03-08T06:47:31.880Z,83.64
2024-03-08T06:52:28.667Z,82.90
2024-03-08T06:57:28.756Z,81.96
2024-03-08T07:02:28.638Z,79.56
2024-03-08T07:07:28.542Z,79.50
2024-03-08T07:12:28.661Z,78.29
2024-03-08T07:17:28.668Z,78.28
2024-03-08T07:22:28.324Z,78.26
2024-03-08T07:27:28.305Z,78.85
2024-03-08T07:32:28.290Z,79.29
2024-03-08T07:37:28.246Z,80.06
2024-03-08T07:42:28.073Z,80.84
2024-03-08T07:47:31.206Z,81.20
2024-03-08T07:52:28.117Z,82.18
2024-03-08T07:57:27.894Z,83.05
2024-03-08T08:02:27.804Z,82.35
2024-03-08T08:07:27.828Z,82.90
2024-03-08T08:12:27.661Z,83.93
2024-03-08T08:17:27.757Z,84.18
2024-03-08T08:22:27.573Z,83.47
2024-03-08T08:27:27.529Z,83.51
2024-03-08T08:32:27.372Z,82.46
2024-03-08T08:37:27.391Z,81.95
2024-03-08T08:42:27.259Z,81.70
2024-03-08T08:47:30.291Z,80.76
2024-03-08T08:52:27.124Z,80.39
2024-03-08T08:57:27.195Z,79.67
2024-03-08T09:02:27.089Z,79.02
2024-03-08T09:07:27.059Z,78.79
2024-03-08T09:12:26.897Z,78.71
2024-03-08T09:17:26.933Z,78.76
2024-03-08T09:22:26.717Z,77.91
2024-03-08T09:27:26.738Z,76.92
2024-03-08T09:32:26.645Z,74.97
2024-03-08T09:37:26.586Z,74.60
2024-03-08T09:42:26.489Z,73.71
2024-03-08T09:47:29.545Z,72.20
2024-03-08T09:52:26.399Z,71.10
2024-03-08T09:57:26.406Z,70.33
2024-03-08T10:02:26.358Z,69.15
2024-03-08T10:07:26.322Z,67.78
2024-03-08T10:12:26.159Z,67.31
2024-03-08T10:17:26.082Z,66.19
2024-03-08T10:22:26.042Z,65.44
2024-03-08T10:27:26.063Z,66.76
2024-03-08T10:32:25.807Z,66.82
2024-03-08T10:37:25.950Z,67.14
2024-03-08T10:42:25.719Z,66.12
2024-03-08T10:47:28.670Z,66.98
2024-03-08T10:52:25.645Z,66.65
2024-03-08T10:57:25.567Z,66.69
2024-03-08T11:02:26.177Z,66.44
2024-03-08T11:07:25.516Z,65.70
2024-03-08T11:12:25.318Z,65.63
2024-03-08T11:17:25.364Z,64.61
2024-03-08T11:22:25.269Z,65.06
2024-03-08T11:27:25.175Z,64.26
2024-03-08T11:32:25.185Z,63.55
2024-03-08T11:37:25.212Z,62.98
2024-03-08T11:42:25.046Z,64.02
2024-03-08T11:47:27.927Z,63.09
2024-03-08T11:52:24.899Z,63.50
2024-03-08T11:57:24.987Z,63.42
2024-03-08T12:02:24.725Z,63.17
2024-03-08T12:07:24.686Z,63.71
2024-03-08T12:12:24.600Z,63.39
2024-03-08T12:17:24.548Z,63.51
2024-03-08T12:22:24.501Z,64.01
2024-03-08T12:27:24.347Z,63.61
2024-03-08T12:32:24.338Z,63.28
2024-03-08T12:37:24.285Z,62.45
2024-03-08T12:42:24.140Z,63.79
2024-03-08T12:47:27.142Z,61.69
2024-03-08T12:52:24.033Z,60.55
2024-03-08T12:57:24.004Z,61.36
2024-03-08T13:02:23.944Z,61.44
2024-03-08T13:07:23.892Z,61.25
2024-03-08T13:12:23.780Z,61.11
2024-03-08T13:17:23.800Z,61.24
2024-03-08T13:22:23.670Z,60.04
2024-03-08T13:27:23.584Z,60.09
2024-03-08T13:32:23.465Z,60.04
2024-03-08T13:37:23.499Z,60.96
2024-03-08T13:42:23.379Z,60.41
2024-03-08T13:47:26.306Z,60.46
2024-03-08T13:52:23.202Z,60.03
2024-03-08T13:57:23.232Z,58.86
2024-03-08T14:02:23.056Z,58.75
2024-03-08T14:07:23.053Z,58.02
2024-03-08T14:12:23.057Z,57.90
2024-03-08T14:17:22.905Z,57.43
2024-03-08T14:22:22.794Z,56.20
2024-03-08T14:27:22.759Z,56.43
2024-03-08T14:32:22.691Z,55.97
2024-03-08T14:37:22.736Z,57.36
2024-03-08T14:42:22.554Z,57.23
2024-03-08T14:47:25.537Z,57.20
2024-03-08T14:52:22.521Z,56.60
2024-03-08T14:57:22.341Z,55.38
2024-03-08T15:02:22.415Z,55.25
2024-03-08T15:07:22.347Z,55.04
2024-03-08T15:12:22.144Z,55.01
2024-03-08T15:17:22.247Z,55.33
2024-03-08T15:22:22.029Z,56.29
2024-03-08T15:27:22.113Z,56.28
2024-03-08T15:32:23.571Z,56.44
2024-03-08T15:37:21.930Z,56.15
2024-03-08T15:42:21.797Z,56.94
2024-03-08T15:47:24.733Z,57.39
2024-03-08T15:52:21.678Z,57.69
2024-03-08T15:57:21.611Z,58.03
2024-03-08T16:02:21.591Z,58.15
2024-03-08T16:07:21.516Z,58.46
2024-03-08T16:12:21.332Z,59.27
2024-03-08T16:17:21.312Z,59.80
2024-03-08T16:22:21.263Z,60.26
2024-03-08T16:27:21.163Z,60.79
2024-03-08T16:32:21.122Z,62.07
2024-03-08T16:37:23.121Z,63.09
2024-03-08T16:42:21.262Z,63.04
